sensor_id;sensor_type;location;lat;lon;timestamp;temperature;humidity
5134;DHT22;2585;48.696;10.066;2023-04-06T00:00:25;-3.30;69.30
5134;DHT22;2585;48.696;10.066;2023-04-06T00:02:52;-3.40;84.30
5134;DHT22;2585;48.696;10.066;2023-04-06T00:05:19;-3.30;84.40
5134;DHT22;2585;48.696;10.066;2023-04-06T00:07:47;-3.40;79.50
5134;DHT22;2585;48.696;10.066;2023-04-06T00:10:14;-3.40;87.20
5134;DHT22;2585;48.696;10.066;2023-04-06T00:12:41;-3.40;1.00
5134;DHT22;2585;48.696;10.066;2023-04-06T00:15:08;-3.40;1.00
5134;DHT22;2585;48.696;10.066;2023-04-06T00:17:35;-3.50;1.00
5134;DHT22;2585;48.696;10.066;2023-04-06T00:20:02;-3.50;1.00
5134;DHT22;2585;48.696;10.066;2023-04-06T00:22:29;-3.50;56.20
5134;DHT22;2585;48.696;10.066;2023-04-06T00:24:56;-3.60;90.10
5134;DHT22;2585;48.696;10.066;2023-04-06T00:27:23;-3.50;1.00
5134;DHT22;2585;48.696;10.066;2023-04-06T00:29:50;-3.60;82.50
5134;DHT22;2585;48.696;10.066;2023-04-06T00:32:16;-3.50;84.50
5134;DHT22;2585;48.696;10.066;2023-04-06T00:34:43;-3.60;1.00
5134;DHT22;2585;48.696;10.066;2023-04-06T00:37:11;-3.60;64.90
5134;DHT22;2585;48.696;10.066;2023-04-06T00:39:38;-3.60;87.60
5134;DHT22;2585;48.696;10.066;2023-04-06T00:42:12;-3.70;87.70
5134;DHT22;2585;48.696;10.066;2023-04-06T00:44:41;-3.80;1.00
5134;DHT22;2585;48.696;10.066;2023-04-06T00:47:08;-3.80;1.00
5134;DHT22;2585;48.696;10.066;2023-04-06T00:49:35;-3.80;1.00
5134;DHT22;2585;48.696;10.066;2023-04-06T00:52:02;-3.80;1.00
5134;DHT22;2585;48.696;10.066;2023-04-06T00:54:29;-3.80;84.80
5134;DHT22;2585;48.696;10.066;2023-04-06T00:56:57;-3.90;1.00
5134;DHT22;2585;48.696;10.066;2023-04-06T00:59:24;-3.90;1.00
5134;DHT22;2585;48.696;10.066;2023-04-06T01:01:51;-3.90;1.00
5134;DHT22;2585;48.696;10.066;2023-04-06T01:04:18;-3.90;29.10
5134;DHT22;2585;48.696;10.066;2023-04-06T01:06:45;-4.00;1.00
5134;DHT22;2585;48.696;10.066;2023-04-06T01:09:12;-4.00;1.00
5134;DHT22;2585;48.696;10.066;2023-04-06T01:11:39;-4.00;3.50
5134;DHT22;2585;48.696;10.066;2023-04-06T01:14:06;-4.10;60.60
5134;DHT22;2585;48.696;10.066;2023-04-06T01:16:33;-4.10;1.00
5134;DHT22;2585;48.696;10.066;2023-04-06T01:19:00;-4.10;1.00
5134;DHT22;2585;48.696;10.066;2023-04-06T01:21:27;-4.20;1.00
5134;DHT22;2585;48.696;10.066;2023-04-06T01:23:54;-4.20;1.00
5134;DHT22;2585;48.696;10.066;2023-04-06T01:26:21;-4.20;1.00
5134;DHT22;2585;48.696;10.066;2023-04-06T01:28:48;-4.20;1.00
5134;DHT22;2585;48.696;10.066;2023-04-06T01:31:15;-4.20;1.00
5134;DHT22;2585;48.696;10.066;2023-04-06T01:33:42;-4.20;8.90
5134;DHT22;2585;48.696;10.066;2023-04-06T01:36:09;-4.30;61.80
5134;DHT22;2585;48.696;10.066;2023-04-06T01:38:35;-4.30;81.70
5134;DHT22;2585;48.696;10.066;2023-04-06T01:41:02;-4.30;93.10
5134;DHT22;2585;48.696;10.066;2023-04-06T01:43:29;-4.20;1.00
5134;DHT22;2585;48.696;10.066;2023-04-06T01:45:56;-4.30;1.00
5134;DHT22;2585;48.696;10.066;2023-04-06T01:48:23;-4.30;1.00
5134;DHT22;2585;48.696;10.066;2023-04-06T01:50:50;-4.30;4.80
5134;DHT22;2585;48.696;10.066;2023-04-06T01:53:16;-4.40;1.00
5134;DHT22;2585;48.696;10.066;2023-04-06T01:55:43;-4.40;1.00
5134;DHT22;2585;48.696;10.066;2023-04-06T01:58:10;-4.40;84.50
5134;DHT22;2585;48.696;10.066;2023-04-06T02:00:37;-4.40;64.00
5134;DHT22;2585;48.696;10.066;2023-04-06T02:03:04;-4.40;1.00
5134;DHT22;2585;48.696;10.066;2023-04-06T02:05:33;-4.40;10.90
5134;DHT22;2585;48.696;10.066;2023-04-06T02:08:04;-4.40;1.00
5134;DHT22;2585;48.696;10.066;2023-04-06T02:10:32;-4.40;1.00
5134;DHT22;2585;48.696;10.066;2023-04-06T02:12:59;-4.40;1.30
5134;DHT22;2585;48.696;10.066;2023-04-06T02:15:26;-4.40;14.80
5134;DHT22;2585;48.696;10.066;2023-04-06T02:17:53;-4.50;1.00
5134;DHT22;2585;48.696;10.066;2023-04-06T02:20:20;-4.50;29.80
5134;DHT22;2585;48.696;10.066;2023-04-06T02:22:47;-4.60;56.00
5134;DHT22;2585;48.696;10.066;2023-04-06T02:25:14;-4.60;70.20
5134;DHT22;2585;48.696;10.066;2023-04-06T02:27:41;-4.70;78.90
5134;DHT22;2585;48.696;10.066;2023-04-06T02:30:08;-4.70;84.90
5134;DHT22;2585;48.696;10.066;2023-04-06T02:32:35;-4.70;90.90
5134;DHT22;2585;48.696;10.066;2023-04-06T02:35:02;-4.80;93.00
5134;DHT22;2585;48.696;10.066;2023-04-06T02:37:29;-4.80;1.00
5134;DHT22;2585;48.696;10.066;2023-04-06T02:39:56;-4.80;1.00
5134;DHT22;2585;48.696;10.066;2023-04-06T02:42:22;-4.90;1.00
5134;DHT22;2585;48.696;10.066;2023-04-06T02:44:49;-4.80;1.00
5134;DHT22;2585;48.696;10.066;2023-04-06T02:47:16;-4.90;1.00
5134;DHT22;2585;48.696;10.066;2023-04-06T02:49:43;-4.90;1.00
5134;DHT22;2585;48.696;10.066;2023-04-06T02:52:12;-4.90;1.00
5134;DHT22;2585;48.696;10.066;2023-04-06T02:54:39;-4.90;3.80
5134;DHT22;2585;48.696;10.066;2023-04-06T02:57:06;-4.90;1.00
5134;DHT22;2585;48.696;10.066;2023-04-06T02:59:32;-4.90;1.00
5134;DHT22;2585;48.696;10.066;2023-04-06T03:01:59;-5.00;1.00
5134;DHT22;2585;48.696;10.066;2023-04-06T03:04:26;-5.00;3.10
5134;DHT22;2585;48.696;10.066;2023-04-06T03:06:54;-5.10;18.50
5134;DHT22;2585;48.696;10.066;2023-04-06T03:09:21;-5.10;52.10
5134;DHT22;2585;48.696;10.066;2023-04-06T03:11:48;-5.10;60.60
5134;DHT22;2585;48.696;10.066;2023-04-06T03:14:15;-5.10;60.30
5134;DHT22;2585;48.696;10.066;2023-04-06T03:16:44;-5.10;67.10
5134;DHT22;2585;48.696;10.066;2023-04-06T03:19:11;-5.20;68.60
5134;DHT22;2585;48.696;10.066;2023-04-06T03:21:37;-5.20;61.50
5134;DHT22;2585;48.696;10.066;2023-04-06T03:24:05;-5.20;51.00
5134;DHT22;2585;48.696;10.066;2023-04-06T03:26:32;-5.20;61.70
5134;DHT22;2585;48.696;10.066;2023-04-06T03:28:59;-5.20;66.30
5134;DHT22;2585;48.696;10.066;2023-04-06T03:31:26;-5.20;70.50
5134;DHT22;2585;48.696;10.066;2023-04-06T03:33:53;-5.20;71.10
5134;DHT22;2585;48.696;10.066;2023-04-06T03:36:20;-5.20;75.40
5134;DHT22;2585;48.696;10.066;2023-04-06T03:38:47;-5.20;79.10
5134;DHT22;2585;48.696;10.066;2023-04-06T03:41:14;-5.20;77.10
5134;DHT22;2585;48.696;10.066;2023-04-06T03:43:41;-5.30;78.90
5134;DHT22;2585;48.696;10.066;2023-04-06T03:46:08;-5.30;83.60
5134;DHT22;2585;48.696;10.066;2023-04-06T03:48:34;-5.40;85.40
5134;DHT22;2585;48.696;10.066;2023-04-06T03:51:01;-5.40;86.90
5134;DHT22;2585;48.696;10.066;2023-04-06T03:53:28;-5.40;90.10
5134;DHT22;2585;48.696;10.066;2023-04-06T03:55:55;-5.40;90.30
5134;DHT22;2585;48.696;10.066;2023-04-06T03:58:22;-5.40;90.40
5134;DHT22;2585;48.696;10.066;2023-04-06T04:00:49;-5.50;90.90
5134;DHT22;2585;48.696;10.066;2023-04-06T04:03:16;-5.50;93.10
5134;DHT22;2585;48.696;10.066;2023-04-06T04:05:43;-5.50;1.00
5134;DHT22;2585;48.696;10.066;2023-04-06T04:08:10;-5.60;1.00
5134;DHT22;2585;48.696;10.066;2023-04-06T04:10:37;-5.60;1.00
5134;DHT22;2585;48.696;10.066;2023-04-06T04:13:03;-5.60;1.00
5134;DHT22;2585;48.696;10.066;2023-04-06T04:15:30;-5.60;1.00
5134;DHT22;2585;48.696;10.066;2023-04-06T04:17:57;-5.60;1.00
5134;DHT22;2585;48.696;10.066;2023-04-06T04:20:24;-5.60;1.00
5134;DHT22;2585;48.696;10.066;2023-04-06T04:22:50;-5.60;1.00
5134;DHT22;2585;48.696;10.066;2023-04-06T04:25:17;-5.60;1.00
5134;DHT22;2585;48.696;10.066;2023-04-06T04:27:44;-5.60;1.00
5134;DHT22;2585;48.696;10.066;2023-04-06T04:30:11;-5.60;1.00
5134;DHT22;2585;48.696;10.066;2023-04-06T04:32:38;-5.60;1.00
5134;DHT22;2585;48.696;10.066;2023-04-06T04:35:05;-5.60;1.00
5134;DHT22;2585;48.696;10.066;2023-04-06T04:37:32;-5.70;1.00
5134;DHT22;2585;48.696;10.066;2023-04-06T04:40:01;-5.70;1.00
5134;DHT22;2585;48.696;10.066;2023-04-06T04:42:28;-5.70;1.00
5134;DHT22;2585;48.696;10.066;2023-04-06T04:44:55;-5.70;1.00
5134;DHT22;2585;48.696;10.066;2023-04-06T04:47:21;-5.70;1.00
5134;DHT22;2585;48.696;10.066;2023-04-06T04:49:48;-5.70;1.00
5134;DHT22;2585;48.696;10.066;2023-04-06T04:52:15;-5.80;1.00
5134;DHT22;2585;48.696;10.066;2023-04-06T04:54:42;-5.80;1.00
5134;DHT22;2585;48.696;10.066;2023-04-06T04:57:09;-5.80;1.00
5134;DHT22;2585;48.696;10.066;2023-04-06T04:59:35;-5.80;1.00
5134;DHT22;2585;48.696;10.066;2023-04-06T05:02:03;-5.70;1.00
5134;DHT22;2585;48.696;10.066;2023-04-06T05:04:29;-5.70;1.00
5134;DHT22;2585;48.696;10.066;2023-04-06T05:07:07;-5.70;1.00
5134;DHT22;2585;48.696;10.066;2023-04-06T05:09:35;-5.70;1.00
5134;DHT22;2585;48.696;10.066;2023-04-06T05:12:02;-5.70;1.00
5134;DHT22;2585;48.696;10.066;2023-04-06T05:14:29;-5.70;1.00
5134;DHT22;2585;48.696;10.066;2023-04-06T05:16:56;-5.70;1.00
5134;DHT22;2585;48.696;10.066;2023-04-06T05:19:23;-5.60;1.00
5134;DHT22;2585;48.696;10.066;2023-04-06T05:21:49;-5.60;1.00
5134;DHT22;2585;48.696;10.066;2023-04-06T05:24:16;-5.50;1.00
5134;DHT22;2585;48.696;10.066;2023-04-06T05:26:43;-5.50;1.00
5134;DHT22;2585;48.696;10.066;2023-04-06T05:29:10;-5.50;1.00
5134;DHT22;2585;48.696;10.066;2023-04-06T05:31:40;-5.50;1.00
5134;DHT22;2585;48.696;10.066;2023-04-06T05:34:13;-5.40;1.00
5134;DHT22;2585;48.696;10.066;2023-04-06T05:36:40;-5.30;1.00
5134;DHT22;2585;48.696;10.066;2023-04-06T05:39:07;-5.30;1.00
5134;DHT22;2585;48.696;10.066;2023-04-06T05:41:34;-5.20;1.00
5134;DHT22;2585;48.696;10.066;2023-04-06T05:44:01;-5.20;1.00
5134;DHT22;2585;48.696;10.066;2023-04-06T05:46:28;-5.10;1.00
5134;DHT22;2585;48.696;10.066;2023-04-06T05:48:55;-5.00;1.00
5134;DHT22;2585;48.696;10.066;2023-04-06T05:51:22;-4.90;1.00
5134;DHT22;2585;48.696;10.066;2023-04-06T05:53:49;-4.90;1.00
5134;DHT22;2585;48.696;10.066;2023-04-06T05:56:16;-4.80;1.00
5134;DHT22;2585;48.696;10.066;2023-04-06T05:58:43;-4.70;1.00
5134;DHT22;2585;48.696;10.066;2023-04-06T06:01:10;-4.60;1.00
5134;DHT22;2585;48.696;10.066;2023-04-06T06:03:37;-4.50;1.00
5134;DHT22;2585;48.696;10.066;2023-04-06T06:06:04;-4.50;1.00
5134;DHT22;2585;48.696;10.066;2023-04-06T06:08:31;-4.40;1.00
5134;DHT22;2585;48.696;10.066;2023-04-06T06:10:58;-4.30;1.00
5134;DHT22;2585;48.696;10.066;2023-04-06T06:13:25;-4.20;1.00
5134;DHT22;2585;48.696;10.066;2023-04-06T06:15:52;-4.00;1.00
5134;DHT22;2585;48.696;10.066;2023-04-06T06:18:19;-4.00;1.00
5134;DHT22;2585;48.696;10.066;2023-04-06T06:20:45;-3.80;1.00
5134;DHT22;2585;48.696;10.066;2023-04-06T06:23:12;-3.70;1.00
5134;DHT22;2585;48.696;10.066;2023-04-06T06:25:39;-3.60;1.00
5134;DHT22;2585;48.696;10.066;2023-04-06T06:28:06;-3.50;1.00
5134;DHT22;2585;48.696;10.066;2023-04-06T06:30:33;-3.30;1.00
5134;DHT22;2585;48.696;10.066;2023-04-06T06:33:00;-3.20;91.80
5134;DHT22;2585;48.696;10.066;2023-04-06T06:35:27;-3.10;87.30
5134;DHT22;2585;48.696;10.066;2023-04-06T06:37:54;-2.80;80.50
5134;DHT22;2585;48.696;10.066;2023-04-06T06:40:21;-2.60;61.10
5134;DHT22;2585;48.696;10.066;2023-04-06T06:42:50;-2.30;1.00
5134;DHT22;2585;48.696;10.066;2023-04-06T06:45:18;-2.00;1.00
5134;DHT22;2585;48.696;10.066;2023-04-06T06:47:45;-1.90;1.00
5134;DHT22;2585;48.696;10.066;2023-04-06T06:50:12;-1.60;1.00
5134;DHT22;2585;48.696;10.066;2023-04-06T06:52:39;-1.20;1.00
5134;DHT22;2585;48.696;10.066;2023-04-06T06:55:07;-0.90;1.00
5134;DHT22;2585;48.696;10.066;2023-04-06T06:57:35;-0.60;1.00
5134;DHT22;2585;48.696;10.066;2023-04-06T07:00:02;-0.30;49.90
5134;DHT22;2585;48.696;10.066;2023-04-06T07:02:30;-0.20;46.80
5134;DHT22;2585;48.696;10.066;2023-04-06T07:04:57;0.10;1.00
5134;DHT22;2585;48.696;10.066;2023-04-06T07:07:24;0.30;79.70
5134;DHT22;2585;48.696;10.066;2023-04-06T07:09:50;0.60;37.30
5134;DHT22;2585;48.696;10.066;2023-04-06T07:12:17;0.80;1.00
5134;DHT22;2585;48.696;10.066;2023-04-06T07:14:44;1.00;93.40
5134;DHT22;2585;48.696;10.066;2023-04-06T07:17:11;1.50;70.30
5134;DHT22;2585;48.696;10.066;2023-04-06T07:19:38;1.90;34.00
5134;DHT22;2585;48.696;10.066;2023-04-06T07:22:05;2.30;1.00
5134;DHT22;2585;48.696;10.066;2023-04-06T07:24:32;2.60;1.00
5134;DHT22;2585;48.696;10.066;2023-04-06T07:26:59;3.00;93.00
5134;DHT22;2585;48.696;10.066;2023-04-06T07:29:27;3.10;65.90
5134;DHT22;2585;48.696;10.066;2023-04-06T07:31:54;3.40;52.40
5134;DHT22;2585;48.696;10.066;2023-04-06T07:34:22;3.50;49.50
5134;DHT22;2585;48.696;10.066;2023-04-06T07:36:49;3.50;1.00
5134;DHT22;2585;48.696;10.066;2023-04-06T07:39:15;4.00;1.00
5134;DHT22;2585;48.696;10.066;2023-04-06T07:41:42;4.10;1.00
5134;DHT22;2585;48.696;10.066;2023-04-06T07:44:09;4.40;1.00
5134;DHT22;2585;48.696;10.066;2023-04-06T07:46:36;4.70;1.00
5134;DHT22;2585;48.696;10.066;2023-04-06T07:49:03;4.90;1.00
5134;DHT22;2585;48.696;10.066;2023-04-06T07:51:30;5.30;1.00
5134;DHT22;2585;48.696;10.066;2023-04-06T07:53:57;5.60;94.60
5134;DHT22;2585;48.696;10.066;2023-04-06T07:56:25;5.60;91.30
5134;DHT22;2585;48.696;10.066;2023-04-06T07:58:52;5.70;88.30
5134;DHT22;2585;48.696;10.066;2023-04-06T08:01:22;5.50;83.00
5134;DHT22;2585;48.696;10.066;2023-04-06T08:03:48;5.80;79.50
5134;DHT22;2585;48.696;10.066;2023-04-06T08:06:17;5.50;72.40
5134;DHT22;2585;48.696;10.066;2023-04-06T08:08:43;6.00;76.50
5134;DHT22;2585;48.696;10.066;2023-04-06T08:11:11;6.30;61.50
5134;DHT22;2585;48.696;10.066;2023-04-06T08:13:37;6.30;31.30
5134;DHT22;2585;48.696;10.066;2023-04-06T08:16:04;6.00;35.00
5134;DHT22;2585;48.696;10.066;2023-04-06T08:18:31;6.40;9.40
5134;DHT22;2585;48.696;10.066;2023-04-06T08:20:58;6.50;1.00
5134;DHT22;2585;48.696;10.066;2023-04-06T08:23:25;6.20;1.00
5134;DHT22;2585;48.696;10.066;2023-04-06T08:25:52;6.30;1.00
5134;DHT22;2585;48.696;10.066;2023-04-06T08:28:20;6.40;1.00
5134;DHT22;2585;48.696;10.066;2023-04-06T08:30:47;6.60;1.00
5134;DHT22;2585;48.696;10.066;2023-04-06T08:33:14;6.50;1.00
5134;DHT22;2585;48.696;10.066;2023-04-06T08:35:42;7.00;1.00
5134;DHT22;2585;48.696;10.066;2023-04-06T08:38:09;7.60;1.00
5134;DHT22;2585;48.696;10.066;2023-04-06T08:40:37;7.80;1.00
5134;DHT22;2585;48.696;10.066;2023-04-06T08:43:06;8.20;1.00
5134;DHT22;2585;48.696;10.066;2023-04-06T08:45:35;8.30;1.00
5134;DHT22;2585;48.696;10.066;2023-04-06T08:48:03;8.10;1.00
5134;DHT22;2585;48.696;10.066;2023-04-06T08:50:30;8.10;1.00
5134;DHT22;2585;48.696;10.066;2023-04-06T08:52:59;8.40;1.00
5134;DHT22;2585;48.696;10.066;2023-04-06T08:55:27;8.80;1.00
5134;DHT22;2585;48.696;10.066;2023-04-06T08:58:00;9.60;1.00
5134;DHT22;2585;48.696;10.066;2023-04-06T09:00:28;9.50;1.00
5134;DHT22;2585;48.696;10.066;2023-04-06T09:02:57;9.70;1.00
5134;DHT22;2585;48.696;10.066;2023-04-06T09:05:25;9.50;1.00
5134;DHT22;2585;48.696;10.066;2023-04-06T09:07:52;9.90;1.00
5134;DHT22;2585;48.696;10.066;2023-04-06T09:10:19;10.30;1.00
5134;DHT22;2585;48.696;10.066;2023-04-06T09:12:47;10.60;1.00
5134;DHT22;2585;48.696;10.066;2023-04-06T09:15:19;11.20;1.00
5134;DHT22;2585;48.696;10.066;2023-04-06T09:17:50;11.70;1.00
5134;DHT22;2585;48.696;10.066;2023-04-06T09:20:25;12.20;1.00
5134;DHT22;2585;48.696;10.066;2023-04-06T09:22:53;11.90;90.90
5134;DHT22;2585;48.696;10.066;2023-04-06T09:25:23;11.60;88.70
5134;DHT22;2585;48.696;10.066;2023-04-06T09:28:10;11.70;90.30
5134;DHT22;2585;48.696;10.066;2023-04-06T09:30:48;11.50;85.80
5134;DHT22;2585;48.696;10.066;2023-04-06T09:33:22;11.50;84.30
5134;DHT22;2585;48.696;10.066;2023-04-06T09:35:50;11.70;82.50
5134;DHT22;2585;48.696;10.066;2023-04-06T09:38:17;12.60;84.60
5134;DHT22;2585;48.696;10.066;2023-04-06T09:40:51;12.00;80.40
5134;DHT22;2585;48.696;10.066;2023-04-06T09:43:27;11.80;79.60
5134;DHT22;2585;48.696;10.066;2023-04-06T09:45:56;11.90;78.60
5134;DHT22;2585;48.696;10.066;2023-04-06T09:48:24;12.00;77.50
5134;DHT22;2585;48.696;10.066;2023-04-06T09:50:59;12.30;77.50
5134;DHT22;2585;48.696;10.066;2023-04-06T09:53:31;12.60;75.90
5134;DHT22;2585;48.696;10.066;2023-04-06T09:56:02;12.90;75.60
5134;DHT22;2585;48.696;10.066;2023-04-06T09:58:34;12.30;73.20
5134;DHT22;2585;48.696;10.066;2023-04-06T10:01:11;12.90;75.00
5134;DHT22;2585;48.696;10.066;2023-04-06T10:03:56;13.90;75.60
5134;DHT22;2585;48.696;10.066;2023-04-06T10:06:27;13.10;71.40
5134;DHT22;2585;48.696;10.066;2023-04-06T10:08:56;12.90;71.80
5134;DHT22;2585;48.696;10.066;2023-04-06T10:11:23;13.90;72.50
5134;DHT22;2585;48.696;10.066;2023-04-06T10:13:51;14.00;71.20
5134;DHT22;2585;48.696;10.066;2023-04-06T10:16:18;14.00;69.10
5134;DHT22;2585;48.696;10.066;2023-04-06T10:18:50;14.40;69.50
5134;DHT22;2585;48.696;10.066;2023-04-06T10:21:24;14.90;70.50
5134;DHT22;2585;48.696;10.066;2023-04-06T10:23:58;14.50;66.70
5134;DHT22;2585;48.696;10.066;2023-04-06T10:26:25;13.30;63.70
5134;DHT22;2585;48.696;10.066;2023-04-06T10:28:52;12.50;62.80
5134;DHT22;2585;48.696;10.066;2023-04-06T10:31:28;12.50;63.30
5134;DHT22;2585;48.696;10.066;2023-04-06T10:34:00;12.50;63.30
5134;DHT22;2585;48.696;10.066;2023-04-06T10:36:36;13.30;63.50
5134;DHT22;2585;48.696;10.066;2023-04-06T10:39:04;13.60;62.90
5134;DHT22;2585;48.696;10.066;2023-04-06T10:41:43;13.40;62.40
5134;DHT22;2585;48.696;10.066;2023-04-06T10:44:30;14.20;62.60
5134;DHT22;2585;48.696;10.066;2023-04-06T10:46:58;13.80;60.40
5134;DHT22;2585;48.696;10.066;2023-04-06T10:49:27;14.00;60.10
5134;DHT22;2585;48.696;10.066;2023-04-06T10:51:55;13.30;54.10
5134;DHT22;2585;48.696;10.066;2023-04-06T10:54:24;13.50;53.50
5134;DHT22;2585;48.696;10.066;2023-04-06T10:56:52;14.10;57.90
5134;DHT22;2585;48.696;10.066;2023-04-06T10:59:23;14.30;54.50
5134;DHT22;2585;48.696;10.066;2023-04-06T11:01:51;14.20;53.30
5134;DHT22;2585;48.696;10.066;2023-04-06T11:04:20;14.40;53.30
5134;DHT22;2585;48.696;10.066;2023-04-06T11:06:48;14.90;52.70
5134;DHT22;2585;48.696;10.066;2023-04-06T11:09:26;15.20;51.50
5134;DHT22;2585;48.696;10.066;2023-04-06T11:11:53;15.40;48.50
5134;DHT22;2585;48.696;10.066;2023-04-06T11:14:21;14.70;43.90
5134;DHT22;2585;48.696;10.066;2023-04-06T11:16:48;14.70;44.20
5134;DHT22;2585;48.696;10.066;2023-04-06T11:19:19;14.60;41.70
5134;DHT22;2585;48.696;10.066;2023-04-06T11:21:47;14.30;37.30
5134;DHT22;2585;48.696;10.066;2023-04-06T11:24:22;13.60;34.20
5134;DHT22;2585;48.696;10.066;2023-04-06T11:26:58;14.60;36.80
5134;DHT22;2585;48.696;10.066;2023-04-06T11:29:29;14.70;43.00
5134;DHT22;2585;48.696;10.066;2023-04-06T11:32:04;14.60;36.40
5134;DHT22;2585;48.696;10.066;2023-04-06T11:34:39;14.50;35.20
5134;DHT22;2585;48.696;10.066;2023-04-06T11:37:08;14.50;35.50
5134;DHT22;2585;48.696;10.066;2023-04-06T11:39:55;14.80;33.60
5134;DHT22;2585;48.696;10.066;2023-04-06T11:42:25;14.80;32.90
5134;DHT22;2585;48.696;10.066;2023-04-06T11:44:54;15.20;36.30
5134;DHT22;2585;48.696;10.066;2023-04-06T11:47:32;14.90;30.90
5134;DHT22;2585;48.696;10.066;2023-04-06T11:50:13;15.10;30.60
5134;DHT22;2585;48.696;10.066;2023-04-06T11:52:42;15.00;29.20
5134;DHT22;2585;48.696;10.066;2023-04-06T11:55:16;15.20;30.40
5134;DHT22;2585;48.696;10.066;2023-04-06T11:57:44;14.90;26.90
5134;DHT22;2585;48.696;10.066;2023-04-06T12:00:12;15.00;28.70
5134;DHT22;2585;48.696;10.066;2023-04-06T12:02:39;16.20;32.50
5134;DHT22;2585;48.696;10.066;2023-04-06T12:05:07;16.30;29.50
5134;DHT22;2585;48.696;10.066;2023-04-06T12:07:35;15.80;27.60
5134;DHT22;2585;48.696;10.066;2023-04-06T12:10:03;16.20;27.50
5134;DHT22;2585;48.696;10.066;2023-04-06T12:12:30;16.90;29.30
5134;DHT22;2585;48.696;10.066;2023-04-06T12:14:57;17.30;29.60
5134;DHT22;2585;48.696;10.066;2023-04-06T12:17:25;16.70;24.20
5134;DHT22;2585;48.696;10.066;2023-04-06T12:19:52;16.10;21.70
5134;DHT22;2585;48.696;10.066;2023-04-06T12:22:18;16.20;25.70
5134;DHT22;2585;48.696;10.066;2023-04-06T12:24:45;17.30;27.90
5134;DHT22;2585;48.696;10.066;2023-04-06T12:27:12;16.40;19.70
5134;DHT22;2585;48.696;10.066;2023-04-06T12:29:39;15.50;17.50
5134;DHT22;2585;48.696;10.066;2023-04-06T12:32:06;15.60;17.30
5134;DHT22;2585;48.696;10.066;2023-04-06T12:34:33;16.70;21.30
5134;DHT22;2585;48.696;10.066;2023-04-06T12:36:59;17.00;22.90
5134;DHT22;2585;48.696;10.066;2023-04-06T12:39:30;16.60;19.80
5134;DHT22;2585;48.696;10.066;2023-04-06T12:41:57;15.60;13.40
5134;DHT22;2585;48.696;10.066;2023-04-06T12:44:24;15.20;15.50
5134;DHT22;2585;48.696;10.066;2023-04-06T12:46:52;16.00;16.40
5134;DHT22;2585;48.696;10.066;2023-04-06T12:49:19;16.30;17.70
5134;DHT22;2585;48.696;10.066;2023-04-06T12:51:46;17.20;19.10
5134;DHT22;2585;48.696;10.066;2023-04-06T12:54:13;17.30;23.50
5134;DHT22;2585;48.696;10.066;2023-04-06T12:56:40;17.10;17.10
5134;DHT22;2585;48.696;10.066;2023-04-06T12:59:07;16.90;14.90
5134;DHT22;2585;48.696;10.066;2023-04-06T13:01:34;17.60;17.00
5134;DHT22;2585;48.696;10.066;2023-04-06T13:04:01;17.00;16.80
5134;DHT22;2585;48.696;10.066;2023-04-06T13:06:29;17.80;15.80
5134;DHT22;2585;48.696;10.066;2023-04-06T13:08:56;17.10;12.00
5134;DHT22;2585;48.696;10.066;2023-04-06T13:11:25;16.50;10.80
5134;DHT22;2585;48.696;10.066;2023-04-06T13:13:54;15.90;8.20
5134;DHT22;2585;48.696;10.066;2023-04-06T13:16:21;15.60;9.70
5134;DHT22;2585;48.696;10.066;2023-04-06T13:18:48;16.20;10.00
5134;DHT22;2585;48.696;10.066;2023-04-06T13:21:16;16.60;13.60
5134;DHT22;2585;48.696;10.066;2023-04-06T13:23:43;16.90;14.10
5134;DHT22;2585;48.696;10.066;2023-04-06T13:26:11;16.60;8.80
5134;DHT22;2585;48.696;10.066;2023-04-06T13:28:40;16.60;8.80
5134;DHT22;2585;48.696;10.066;2023-04-06T13:31:07;16.00;7.40
5134;DHT22;2585;48.696;10.066;2023-04-06T13:33:35;15.70;6.00
5134;DHT22;2585;48.696;10.066;2023-04-06T13:36:02;15.90;7.40
5134;DHT22;2585;48.696;10.066;2023-04-06T13:38:29;15.90;6.50
5134;DHT22;2585;48.696;10.066;2023-04-06T13:40:56;15.60;6.00
5134;DHT22;2585;48.696;10.066;2023-04-06T13:43:23;16.10;5.70
5134;DHT22;2585;48.696;10.066;2023-04-06T13:45:54;16.80;7.00
5134;DHT22;2585;48.696;10.066;2023-04-06T13:48:25;16.20;3.90
5134;DHT22;2585;48.696;10.066;2023-04-06T13:50:52;15.10;1.50
5134;DHT22;2585;48.696;10.066;2023-04-06T13:53:19;15.10;3.50
5134;DHT22;2585;48.696;10.066;2023-04-06T13:55:54;14.60;1.00
5134;DHT22;2585;48.696;10.066;2023-04-06T13:58:21;14.40;2.30
5134;DHT22;2585;48.696;10.066;2023-04-06T14:00:47;14.80;2.60
5134;DHT22;2585;48.696;10.066;2023-04-06T14:03:14;15.10;4.20
5134;DHT22;2585;48.696;10.066;2023-04-06T14:05:42;15.40;5.40
5134;DHT22;2585;48.696;10.066;2023-04-06T14:08:08;15.00;3.50
5134;DHT22;2585;48.696;10.066;2023-04-06T14:10:40;14.80;4.10
5134;DHT22;2585;48.696;10.066;2023-04-06T14:13:08;14.50;1.00
5134;DHT22;2585;48.696;10.066;2023-04-06T14:15:35;14.30;1.00
5134;DHT22;2585;48.696;10.066;2023-04-06T14:18:01;14.00;1.00
5134;DHT22;2585;48.696;10.066;2023-04-06T14:20:31;14.10;1.00
5134;DHT22;2585;48.696;10.066;2023-04-06T14:23:02;14.30;5.90
5134;DHT22;2585;48.696;10.066;2023-04-06T14:25:30;14.50;3.70
5134;DHT22;2585;48.696;10.066;2023-04-06T14:27:58;14.80;2.20
5134;DHT22;2585;48.696;10.066;2023-04-06T14:30:25;14.30;1.00
5134;DHT22;2585;48.696;10.066;2023-04-06T14:32:52;13.80;1.20
5134;DHT22;2585;48.696;10.066;2023-04-06T14:35:19;13.80;1.00
5134;DHT22;2585;48.696;10.066;2023-04-06T14:37:46;13.70;1.00
5134;DHT22;2585;48.696;10.066;2023-04-06T14:40:13;13.70;2.40
5134;DHT22;2585;48.696;10.066;2023-04-06T14:42:40;14.00;3.40
5134;DHT22;2585;48.696;10.066;2023-04-06T14:45:07;14.10;1.60
5134;DHT22;2585;48.696;10.066;2023-04-06T14:47:34;13.70;1.00
5134;DHT22;2585;48.696;10.066;2023-04-06T14:50:01;13.80;1.70
5134;DHT22;2585;48.696;10.066;2023-04-06T14:52:28;14.00;3.70
5134;DHT22;2585;48.696;10.066;2023-04-06T14:54:58;13.70;1.00
5134;DHT22;2585;48.696;10.066;2023-04-06T14:57:24;13.50;1.10
5134;DHT22;2585;48.696;10.066;2023-04-06T14:59:53;13.60;1.30
5134;DHT22;2585;48.696;10.066;2023-04-06T15:02:20;13.50;1.00
5134;DHT22;2585;48.696;10.066;2023-04-06T15:04:47;12.80;1.00
5134;DHT22;2585;48.696;10.066;2023-04-06T15:07:14;12.70;1.00
5134;DHT22;2585;48.696;10.066;2023-04-06T15:09:41;12.60;1.00
5134;DHT22;2585;48.696;10.066;2023-04-06T15:12:08;12.30;1.00
5134;DHT22;2585;48.696;10.066;2023-04-06T15:14:34;12.40;1.00
5134;DHT22;2585;48.696;10.066;2023-04-06T15:17:01;12.40;1.00
5134;DHT22;2585;48.696;10.066;2023-04-06T15:19:28;12.30;1.00
5134;DHT22;2585;48.696;10.066;2023-04-06T15:21:55;12.30;1.00
5134;DHT22;2585;48.696;10.066;2023-04-06T15:24:21;12.20;1.00
5134;DHT22;2585;48.696;10.066;2023-04-06T15:26:48;12.20;1.00
5134;DHT22;2585;48.696;10.066;2023-04-06T15:29:15;12.30;1.00
5134;DHT22;2585;48.696;10.066;2023-04-06T15:31:42;12.40;1.00
5134;DHT22;2585;48.696;10.066;2023-04-06T15:34:09;12.30;1.00
5134;DHT22;2585;48.696;10.066;2023-04-06T15:36:36;12.40;1.00
5134;DHT22;2585;48.696;10.066;2023-04-06T15:39:03;12.40;1.00
5134;DHT22;2585;48.696;10.066;2023-04-06T15:41:35;12.40;1.00
5134;DHT22;2585;48.696;10.066;2023-04-06T15:44:02;12.10;1.00
5134;DHT22;2585;48.696;10.066;2023-04-06T15:46:30;11.90;1.00
5134;DHT22;2585;48.696;10.066;2023-04-06T15:48:57;11.80;1.00
5134;DHT22;2585;48.696;10.066;2023-04-06T15:51:24;11.80;1.00
5134;DHT22;2585;48.696;10.066;2023-04-06T15:53:51;11.70;1.00
5134;DHT22;2585;48.696;10.066;2023-04-06T15:56:18;11.70;1.00
5134;DHT22;2585;48.696;10.066;2023-04-06T15:58:45;11.70;1.00
5134;DHT22;2585;48.696;10.066;2023-04-06T16:01:14;11.60;1.00